Time;durP1;ratioP1;P1;durP2;ratioP2;P2;SDS_P1;SDS_P2;PMS_P1;PMS_P2;Temp;Humidity;BMP_temperature;BMP_pressure;BME280_temperature;BME280_humidity;BME280_pressure;Samples;Min_cycle;Max_cycle;Signal;HPM_P1;HPM_P2
2022/11/17 00:02:14;;;;;;;11.83;10.60;;;6.50;99.90;;;;;;5073030;28;20438;-47
2022/11/17 00:04:41;;;;;;;11.20;10.10;;;6.50;99.90;;;;;;5073564;28;20431;-48
2022/11/17 00:07:08;;;;;;;13.97;11.13;;;5.90;99.90;;;;;;5073370;28;20416;-48
2022/11/17 00:09:35;;;;;;;11.33;10.23;;;6.30;99.90;;;;;;5072285;28;20891;-48
2022/11/17 00:14:46;;;;;;;11.53;10.40;;;6.50;99.90;;;;;;5072287;28;20446;-48
2022/11/17 00:17:14;;;;;;;13.43;10.90;;;6.50;99.90;;;;;;5072298;28;20435;-48
2022/11/17 00:22:25;;;;;;;12.43;11.13;;;6.50;99.90;;;;;;5054012;28;20944;-47
2022/11/17 00:24:52;;;;;;;12.00;10.80;;;6.30;99.90;;;;;;5072071;28;20425;-48
2022/11/17 00:27:19;;;;;;;13.03;11.00;;;6.50;99.90;;;;;;5071991;28;20405;-48
2022/11/17 00:29:45;;;;;;;13.97;10.93;;;6.10;99.90;;;;;;5072735;28;20527;-48
2022/11/17 00:34:58;;;;;;;12.83;11.43;;;6.40;99.90;;;;;;5075759;28;20456;-48
2022/11/17 00:37:25;;;;;;;11.90;10.70;;;6.40;99.90;;;;;;5075694;28;20779;-48
2022/11/17 00:39:52;;;;;;;12.80;11.50;;;6.40;99.90;;;;;;5075177;28;20525;-48
2022/11/17 00:42:19;;;;;;;12.00;10.07;;;6.30;99.90;;;;;;5075473;28;20447;-48
2022/11/17 00:44:45;;;;;;;11.30;10.20;;;6.30;99.90;;;;;;5075553;28;20437;-49
2022/11/17 00:47:12;;;;;;;12.10;10.90;;;6.30;99.90;;;;;;5075530;28;20430;-47
2022/11/17 00:49:38;;;;;;;14.60;8.97;;;6.40;99.90;;;;;;5075169;28;20408;-48
2022/11/17 00:52:06;;;;;;;15.70;11.87;;;6.20;99.90;;;;;;5075334;28;20416;-48
2022/11/17 00:54:33;;;;;;;12.30;10.70;;;5.60;99.90;;;;;;5075401;28;20495;-49
2022/11/17 00:56:59;;;;;;;11.77;10.57;;;5.90;99.90;;;;;;5075438;28;20408;-47
2022/11/17 00:59:26;;;;;;;11.57;10.37;;;6.20;99.90;;;;;;5075037;28;20442;-48
2022/11/17 01:01:53;;;;;;;11.70;10.50;;;6.00;99.90;;;;;;5057336;28;20463;-49
2022/11/17 01:04:19;;;;;;;12.20;10.90;;;6.10;99.90;;;;;;5075131;28;20941;-49
2022/11/17 01:06:47;;;;;;;11.83;10.73;;;6.00;99.90;;;;;;5074968;28;20461;-49
2022/11/17 01:09:18;;;;;;;12.00;10.37;;;6.00;99.90;;;;;;5074653;28;20431;-49
2022/11/17 01:11:46;;;;;;;12.00;10.80;;;5.50;99.90;;;;;;5075258;28;20453;-49
2022/11/17 01:14:15;;;;;;;11.60;10.40;;;6.00;99.90;;;;;;5074859;28;20450;-49
2022/11/17 01:16:42;;;;;;;13.37;10.30;;;5.80;99.90;;;;;;5074971;28;20448;-49
2022/11/17 01:19:10;;;;;;;12.10;10.07;;;6.00;99.90;;;;;;5056645;28;20450;-49
2022/11/17 01:21:37;;;;;;;10.50;9.30;;;5.50;99.90;;;;;;5074669;28;20427;-49
2022/11/17 01:24:04;;;;;;;11.77;10.60;;;6.10;99.90;;;;;;5074610;28;20978;-49
2022/11/17 01:26:35;;;;;;;11.97;9.60;;;6.10;99.90;;;;;;5074822;28;20431;-48
2022/11/17 01:29:03;;;;;;;10.60;9.50;;;5.80;99.90;;;;;;5074499;28;20885;-49
2022/11/17 01:31:32;;;;;;;10.37;9.30;;;6.30;99.90;;;;;;5074546;28;20458;-49
2022/11/17 01:33:59;;;;;;;12.17;9.63;;;5.50;99.90;;;;;;5074601;28;20461;-49
2022/11/17 01:36:27;;;;;;;10.13;9.23;;;6.10;99.90;;;;;;5074569;28;20800;-49
2022/11/17 01:38:54;;;;;;;12.20;10.23;;;6.30;99.90;;;;;;5074276;28;20433;-49
2022/11/17 01:41:23;;;;;;;12.07;9.90;;;6.30;99.90;;;;;;5074100;28;20915;-48
2022/11/17 01:43:53;;;;;;;10.53;9.53;;;6.20;99.90;;;;;;5074486;28;20421;-49
2022/11/17 01:46:30;;;;;;;11.57;10.00;;;6.10;99.90;;;;;;5074463;28;20530;-49
2022/11/17 01:49:02;;;;;;;10.40;9.40;;;6.00;99.90;;;;;;5074036;28;20430;-48
2022/11/17 01:51:32;;;;;;;11.00;9.90;;;6.20;99.90;;;;;;5074334;28;20462;-47
2022/11/17 01:53:59;;;;;;;12.80;10.43;;;6.20;99.90;;;;;;5074445;28;20946;-49
2022/11/17 01:56:33;;;;;;;11.10;9.87;;;6.30;99.90;;;;;;5074293;28;20434;-50
2022/11/17 01:59:08;;;;;;;10.93;9.93;;;5.60;99.90;;;;;;5073916;28;20469;-48
2022/11/17 02:01:54;;;;;;;11.23;10.13;;;6.20;99.90;;;;;;5074208;28;20434;-48
2022/11/17 02:04:21;;;;;;;11.10;9.67;;;6.30;99.90;;;;;;5074143;28;20424;-48
2022/11/17 02:06:51;;;;;;;12.20;11.00;;;5.40;99.90;;;;;;5073997;28;20741;-48
2022/11/17 02:09:19;;;;;;;11.17;10.07;;;6.10;99.90;;;;;;5073674;28;20411;-48
2022/11/17 02:11:47;;;;;;;10.93;9.60;;;6.30;99.90;;;;;;5073857;28;20479;-48
2022/11/17 02:14:15;;;;;;;11.27;9.80;;;5.90;99.90;;;;;;5073807;28;20454;-48
2022/11/17 02:16:42;;;;;;;11.00;9.90;;;6.60;99.90;;;;;;5073840;28;20802;-48
2022/11/17 02:19:11;;;;;;;18.03;9.90;;;5.70;99.90;;;;;;5073452;28;20430;-48
2022/11/17 02:22:00;;;;;;;11.40;10.17;;;6.20;99.90;;;;;;5073712;28;20425;-48
2022/11/17 02:24:56;;;;;;;10.77;9.67;;;6.30;99.90;;;;;;5073618;28;20437;-48
2022/11/17 02:27:54;;;;;;;11.07;9.97;;;6.30;99.90;;;;;;5073682;28;20400;-48
2022/11/17 02:30:23;;;;;;;11.00;9.87;;;6.20;99.90;;;;;;5073196;28;20434;-50
2022/11/17 02:33:02;;;;;;;10.90;9.57;;;6.10;99.90;;;;;;5055482;28;20474;-48
2022/11/17 02:35:38;;;;;;;10.93;9.90;;;6.20;99.90;;;;;;5055658;28;20953;-48
2022/11/17 02:38:15;;;;;;;18.73;9.97;;;6.20;99.90;;;;;;5073543;28;20443;-48
2022/11/17 02:40:45;;;;;;;12.60;11.40;;;6.10;99.90;;;;;;5073596;28;20435;-48
2022/11/17 02:46:05;;;;;;;10.27;9.27;;;5.80;99.90;;;;;;5073643;28;21027;-47
2022/11/17 02:48:35;;;;;;;13.13;10.83;;;5.80;99.90;;;;;;5073071;28;20442;-48
2022/11/17 02:51:04;;;;;;;13.47;10.73;;;5.70;99.90;;;;;;5073764;28;20971;-47
2022/11/17 02:53:31;;;;;;;11.37;10.07;;;5.90;99.90;;;;;;5072939;28;20416;-47
2022/11/17 02:56:01;;;;;;;12.40;11.17;;;5.90;99.90;;;;;;5073910;28;20413;-47
2022/11/17 02:58:29;;;;;;;10.47;9.47;;;5.90;99.90;;;;;;5055507;28;20824;-47
2022/11/17 03:01:16;;;;;;;10.63;9.63;;;6.10;99.90;;;;;;5074021;28;20497;-48
2022/11/17 03:03:58;;;;;;;11.77;10.30;;;6.00;99.90;;;;;;5073914;28;20421;-48
2022/11/17 03:06:31;;;;;;;11.30;9.98;;;5.40;99.90;;;;;;5072894;28;20800;-49
2022/11/17 03:09:07;;;;;;;10.40;9.13;;;5.90;99.90;;;;;;5072573;28;20204;-48
2022/11/17 03:11:44;;;;;;;12.70;11.10;;;5.90;99.90;;;;;;5054895;28;20469;-47
2022/11/17 03:14:20;;;;;;;11.17;9.90;;;5.80;99.90;;;;;;5072759;28;20449;-48
2022/11/17 03:16:55;;;;;;;11.07;9.97;;;6.10;99.90;;;;;;5072760;28;20471;-48
2022/11/17 03:19:27;;;;;;;18.40;10.40;;;6.10;99.90;;;;;;5072422;28;20444;-47
2022/11/17 03:21:59;;;;;;;10.57;8.77;;;5.80;99.90;;;;;;5072587;28;20404;-48
2022/11/17 03:24:30;;;;;;;11.80;10.57;;;5.80;99.90;;;;;;5072501;28;20442;-48
2022/11/17 03:27:01;;;;;;;11.23;10.10;;;5.90;99.90;;;;;;5072583;28;20910;-48
2022/11/17 03:29:31;;;;;;;11.90;10.70;;;6.00;99.90;;;;;;5072170;28;20442;-47
2022/11/17 03:32:02;;;;;;;11.13;9.37;;;5.90;99.90;;;;;;5072243;28;20474;-48
2022/11/17 03:34:33;;;;;;;10.77;9.67;;;5.80;99.90;;;;;;5072319;28;20793;-48
2022/11/17 03:37:03;;;;;;;11.63;9.33;;;5.80;99.90;;;;;;5072406;28;20524;-48
2022/11/17 03:39:32;;;;;;;11.70;10.50;;;6.00;99.90;;;;;;5072021;28;20839;-47
2022/11/17 03:42:04;;;;;;;11.30;10.03;;;5.40;99.90;;;;;;5072365;28;20765;-48
2022/11/17 03:44:36;;;;;;;11.70;10.60;;;6.00;99.90;;;;;;5072423;28;20437;-47
2022/11/17 03:47:06;;;;;;;13.17;10.23;;;5.80;99.90;;;;;;5072423;28;20408;-47
2022/11/17 03:49:39;;;;;;;11.47;10.30;;;6.10;99.90;;;;;;5071684;28;20919;-47
2022/11/17 03:52:06;;;;;;;10.67;9.57;;;5.60;99.90;;;;;;5072123;28;20452;-49
2022/11/17 03:54:33;;;;;;;11.87;10.67;;;5.90;99.90;;;;;;5072125;28;20430;-47
2022/11/17 03:57:05;;;;;;;12.77;10.57;;;5.90;99.90;;;;;;5072095;28;20434;-48
2022/11/17 03:59:41;;;;;;;10.33;9.23;;;6.00;99.90;;;;;;5071713;28;20441;-48
2022/11/17 04:02:09;;;;;;;11.43;10.33;;;6.00;99.90;;;;;;5071844;28;20944;-49
2022/11/17 04:07:16;;;;;;;11.47;10.30;;;6.10;99.90;;;;;;5071210;28;20536;-49
2022/11/17 04:09:42;;;;;;;12.80;10.43;;;6.00;99.90;;;;;;5054033;28;20833;-49
2022/11/17 04:17:39;;;;;;;12.13;10.70;;;5.10;99.90;;;;;;5072199;28;20408;-48
2022/11/17 04:20:07;;;;;;;11.20;10.10;;;5.40;99.90;;;;;;5071695;28;20413;-47
2022/11/17 04:22:33;;;;;;;13.02;10.60;;;6.00;99.90;;;;;;5072146;28;20481;-50
2022/11/17 04:25:00;;;;;;;10.70;9.60;;;5.60;99.90;;;;;;5071469;28;20192;-50
2022/11/17 04:30:13;;;;;;;11.73;10.60;;;6.00;99.90;;;;;;5071366;28;20415;-50
2022/11/17 04:32:39;;;;;;;13.13;10.20;;;6.10;99.90;;;;;;5071382;28;20490;-50
2022/11/17 04:35:07;;;;;;;14.60;12.00;;;6.00;99.90;;;;;;5071633;28;20776;-50
2022/11/17 04:37:33;;;;;;;13.80;12.43;;;6.10;99.90;;;;;;5071626;28;20862;-50
2022/11/17 04:40:00;;;;;;;13.15;11.75;;;5.70;99.90;;;;;;5071303;28;20976;-50
2022/11/17 04:42:26;;;;;;;11.83;10.50;;;5.50;99.90;;;;;;5071787;28;20295;-50
2022/11/17 04:44:52;;;;;;;13.57;11.23;;;5.60;99.90;;;;;;5071368;28;20465;-49
2022/11/17 04:47:20;;;;;;;12.33;10.53;;;6.00;99.90;;;;;;5071428;28;20713;-49
2022/11/17 04:49:47;;;;;;;12.20;11.00;;;5.50;99.90;;;;;;5071086;28;20431;-50
2022/11/17 04:52:13;;;;;;;17.60;11.70;;;6.10;99.90;;;;;;5070930;28;20444;-50
2022/11/17 04:54:40;;;;;;;12.33;11.03;;;6.00;99.90;;;;;;5071413;28;20437;-50
2022/11/17 04:57:07;;;;;;;12.80;11.50;;;5.70;99.90;;;;;;5053178;28;20425;-49
2022/11/17 04:59:33;;;;;;;12.10;10.77;;;5.60;99.90;;;;;;5052910;28;20471;-50
2022/11/17 05:02:00;;;;;;;13.13;11.70;;;5.20;99.90;;;;;;5071121;28;20427;-49
2022/11/17 05:07:12;;;;;;;11.30;10.30;;;5.80;99.90;;;;;;5071339;28;20411;-50
2022/11/17 05:09:38;;;;;;;13.33;12.00;;;6.10;99.90;;;;;;5070759;28;20917;-49
2022/11/17 05:14:49;;;;;;;12.97;11.70;;;5.80;99.90;;;;;;5071369;28;20401;-50
2022/11/17 05:17:16;;;;;;;13.70;12.13;;;6.00;99.90;;;;;;5074599;28;20413;-49
2022/11/17 05:19:45;;;;;;;13.10;11.53;;;6.10;99.90;;;;;;5074261;28;20405;-50
2022/11/17 05:24:58;;;;;;;13.03;11.47;;;5.70;99.90;;;;;;5074691;28;20845;-50
2022/11/17 05:27:25;;;;;;;12.93;11.63;;;5.70;99.90;;;;;;5074588;28;20435;-51
2022/11/17 05:29:52;;;;;;;13.67;11.87;;;5.80;99.90;;;;;;5074313;28;20791;-50
2022/11/17 05:32:18;;;;;;;18.60;12.50;;;5.80;99.90;;;;;;5074407;28;20974;-49
2022/11/17 05:34:46;;;;;;;12.87;11.57;;;6.10;99.90;;;;;;5074542;28;20896;-50
2022/11/17 05:37:13;;;;;;;15.17;12.40;;;6.20;99.90;;;;;;5074448;28;20413;-49
2022/11/17 05:39:39;;;;;;;15.93;12.93;;;6.20;99.90;;;;;;5074589;28;20435;-50
2022/11/17 05:42:06;;;;;;;13.90;12.40;;;6.00;99.90;;;;;;5074658;28;20405;-50
2022/11/17 05:44:32;;;;;;;13.87;11.73;;;6.00;99.90;;;;;;5074528;28;20400;-49
2022/11/17 05:46:59;;;;;;;14.53;12.97;;;5.80;99.90;;;;;;5074363;28;20502;-49
2022/11/17 05:49:26;;;;;;;13.67;12.37;;;6.40;99.90;;;;;;5073957;28;20421;-49
2022/11/17 05:51:54;;;;;;;16.00;14.30;;;6.10;99.90;;;;;;5074127;28;20474;-49
2022/11/17 05:54:20;;;;;;;15.43;13.70;;;6.10;99.90;;;;;;5074485;28;20450;-50
2022/11/17 05:56:51;;;;;;;16.00;13.33;;;5.90;99.90;;;;;;5074097;28;20420;-49
2022/11/17 05:59:23;;;;;;;16.70;13.60;;;5.60;99.90;;;;;;5074404;28;20441;-49
2022/11/17 06:01:54;;;;;;;14.87;13.13;;;6.10;99.90;;;;;;5074630;28;20457;-49
2022/11/17 06:04:21;;;;;;;16.40;14.57;;;5.80;99.90;;;;;;5074046;28;20435;-50
2022/11/17 06:06:49;;;;;;;14.82;13.32;;;6.20;99.90;;;;;;5074089;28;20412;-49
2022/11/17 06:09:17;;;;;;;16.43;13.57;;;6.10;99.90;;;;;;5073283;28;20203;-49
2022/11/17 06:11:43;;;;;;;14.47;12.93;;;5.90;99.90;;;;;;5073715;28;20453;-49
2022/11/17 06:14:10;;;;;;;14.03;12.43;;;6.00;99.90;;;;;;5073698;28;20456;-51
2022/11/17 06:16:42;;;;;;;15.17;13.57;;;6.00;99.90;;;;;;5073450;28;20430;-50
2022/11/17 06:19:13;;;;;;;14.73;13.13;;;6.10;99.90;;;;;;5055311;28;20450;-50
2022/11/17 06:21:40;;;;;;;18.90;14.00;;;5.90;99.90;;;;;;5073292;28;20438;-49
2022/11/17 06:24:09;;;;;;;14.53;13.10;;;6.10;99.90;;;;;;5055116;28;20475;-49
2022/11/17 06:26:38;;;;;;;14.90;13.13;;;5.60;99.90;;;;;;5072962;28;20417;-50
2022/11/17 06:29:05;;;;;;;18.63;12.83;;;6.00;99.90;;;;;;5072656;28;20437;-50
2022/11/17 06:31:32;;;;;;;15.83;14.13;;;6.30;99.90;;;;;;5073138;28;20430;-49
2022/11/17 06:34:02;;;;;;;15.47;13.97;;;6.00;99.90;;;;;;5073260;28;20550;-50
2022/11/17 06:36:29;;;;;;;15.60;13.80;;;6.20;99.90;;;;;;5074195;28;20449;-49
2022/11/17 06:38:56;;;;;;;15.13;13.07;;;6.10;99.90;;;;;;5072871;28;20426;-49
2022/11/17 06:41:23;;;;;;;16.50;14.00;;;6.00;99.90;;;;;;5072726;28;20410;-49
2022/11/17 06:43:51;;;;;;;15.17;13.67;;;6.30;99.90;;;;;;5072285;28;20718;-50
2022/11/17 06:46:17;;;;;;;14.20;12.53;;;6.20;99.90;;;;;;5073044;28;20409;-50
2022/11/17 06:48:44;;;;;;;15.10;13.50;;;6.30;99.90;;;;;;5072278;28;20459;-49
2022/11/17 06:51:11;;;;;;;18.43;14.10;;;6.20;99.90;;;;;;5073003;28;20412;-50
2022/11/17 06:53:38;;;;;;;16.40;13.53;;;6.10;99.90;;;;;;5072201;28;20561;-49
2022/11/17 06:56:06;;;;;;;15.07;11.97;;;6.20;99.90;;;;;;5072301;28;20427;-49
2022/11/17 06:58:34;;;;;;;16.40;13.00;;;6.40;99.90;;;;;;5072110;28;20463;-50
2022/11/17 07:01:06;;;;;;;14.60;12.93;;;6.20;99.90;;;;;;5072673;28;20431;-49
2022/11/17 07:03:35;;;;;;;14.73;13.20;;;6.50;99.90;;;;;;5072063;28;20476;-50
2022/11/17 07:06:01;;;;;;;16.07;13.63;;;5.90;99.90;;;;;;5073192;28;20485;-51
2022/11/17 07:08:29;;;;;;;15.03;13.43;;;6.50;99.90;;;;;;5072944;28;20798;-49
2022/11/17 07:10:55;;;;;;;15.57;13.97;;;6.40;99.90;;;;;;5073393;28;20434;-50
2022/11/17 07:13:23;;;;;;;17.87;12.83;;;6.20;99.90;;;;;;5072192;28;20474;-49
2022/11/17 07:15:51;;;;;;;13.87;12.50;;;6.20;99.90;;;;;;5072122;28;20408;-50
2022/11/17 07:18:20;;;;;;;15.13;11.50;;;6.30;99.90;;;;;;5072262;28;20754;-50
2022/11/17 07:20:47;;;;;;;13.97;12.43;;;6.20;99.90;;;;;;5072193;28;20460;-49
2022/11/17 07:23:14;;;;;;;18.77;12.93;;;6.20;99.90;;;;;;5072387;28;20442;-50
2022/11/17 07:25:41;;;;;;;16.00;12.27;;;6.30;99.90;;;;;;5072745;28;20405;-49
2022/11/17 07:28:08;;;;;;;13.13;11.83;;;6.30;99.90;;;;;;5072430;28;20476;-50
2022/11/17 07:30:35;;;;;;;13.80;12.40;;;6.40;99.90;;;;;;5072195;28;20775;-50
2022/11/17 07:33:02;;;;;;;14.25;12.55;;;6.30;99.90;;;;;;5072155;28;20531;-49
2022/11/17 07:35:30;;;;;;;16.40;12.70;;;6.40;99.90;;;;;;5072478;28;20196;-50
2022/11/17 07:37:58;;;;;;;14.63;11.83;;;5.90;99.90;;;;;;5071646;28;20435;-51
2022/11/17 07:40:25;;;;;;;14.80;12.10;;;5.80;99.90;;;;;;5072049;28;20445;-50
2022/11/17 07:42:51;;;;;;;12.37;11.07;;;6.50;99.90;;;;;;5071547;28;20433;-48
2022/11/17 07:45:20;;;;;;;13.73;12.30;;;6.30;99.90;;;;;;5071718;28;20432;-49
2022/11/17 07:47:53;;;;;;;11.50;10.40;;;6.70;99.90;;;;;;5071516;28;20478;-50
2022/11/17 07:50:20;;;;;;;17.60;10.90;;;6.40;99.90;;;;;;5071770;28;20413;-49
2022/11/17 07:52:49;;;;;;;17.50;10.77;;;6.40;99.90;;;;;;5071369;28;21044;-49
2022/11/17 07:55:15;;;;;;;13.73;12.23;;;6.40;99.90;;;;;;5071673;28;20520;-49
2022/11/17 07:57:42;;;;;;;12.27;10.63;;;6.40;99.90;;;;;;5071440;28;20409;-49
2022/11/17 08:00:10;;;;;;;13.20;10.80;;;7.00;99.90;;;;;;5071166;28;20416;-49
2022/11/17 08:02:39;;;;;;;11.93;10.60;;;6.50;99.90;;;;;;5072033;28;20436;-49
2022/11/17 08:05:06;;;;;;;13.70;10.60;;;6.30;99.90;;;;;;5071315;28;20463;-50
2022/11/17 08:07:33;;;;;;;11.70;9.90;;;6.60;99.90;;;;;;5071953;28;20435;-48
2022/11/17 08:10:01;;;;;;;13.23;10.63;;;6.60;99.90;;;;;;5071164;28;20501;-49
2022/11/17 08:12:27;;;;;;;11.63;10.30;;;6.60;99.90;;;;;;5071463;28;21002;-50
2022/11/17 08:14:54;;;;;;;14.57;10.63;;;6.70;99.90;;;;;;5071629;28;20906;-49
2022/11/17 08:17:20;;;;;;;10.70;9.60;;;6.60;99.90;;;;;;5071211;28;20506;-48
2022/11/17 08:19:47;;;;;;;13.00;11.23;;;6.50;99.90;;;;;;5070768;28;20413;-50
2022/11/17 08:22:13;;;;;;;11.93;10.67;;;6.40;99.90;;;;;;5053226;28;20451;-50
2022/11/17 08:24:40;;;;;;;12.10;10.80;;;6.40;99.90;;;;;;5071845;28;20450;-49
2022/11/17 08:27:09;;;;;;;11.77;10.57;;;7.00;99.90;;;;;;5071943;28;20432;-50
2022/11/17 08:29:35;;;;;;;13.77;10.80;;;6.40;99.90;;;;;;5070813;28;20564;-50
2022/11/17 08:32:02;;;;;;;12.80;10.90;;;6.60;99.90;;;;;;5071403;28;20864;-51
2022/11/17 08:34:28;;;;;;;12.70;11.40;;;6.60;99.90;;;;;;5071544;28;20427;-49
2022/11/17 08:36:55;;;;;;;12.50;11.30;;;6.70;99.90;;;;;;5070616;28;20440;-49
2022/11/17 08:39:22;;;;;;;16.03;11.77;;;6.70;99.90;;;;;;5070723;28;20800;-50
2022/11/17 08:41:51;;;;;;;14.93;12.20;;;6.60;99.90;;;;;;5071046;28;20937;-49
2022/11/17 08:44:19;;;;;;;15.43;12.70;;;6.30;99.90;;;;;;5071093;28;20790;-51
2022/11/17 08:46:46;;;;;;;14.03;12.00;;;6.90;99.90;;;;;;5053209;28;20441;-50
2022/11/17 08:49:12;;;;;;;15.03;11.60;;;6.80;99.90;;;;;;5071279;28;20406;-49
2022/11/17 08:51:39;;;;;;;13.43;11.60;;;6.60;99.90;;;;;;5074536;28;20421;-48
2022/11/17 08:54:05;;;;;;;13.70;11.00;;;6.70;99.90;;;;;;5056904;28;20478;-49
2022/11/17 08:56:32;;;;;;;13.03;10.80;;;6.80;99.90;;;;;;5074955;28;20936;-51
2022/11/17 08:58:59;;;;;;;13.90;12.17;;;6.80;99.90;;;;;;5074660;28;20750;-50
2022/11/17 09:01:27;;;;;;;17.37;13.10;;;6.80;99.90;;;;;;5074417;28;20431;-51
2022/11/17 09:03:53;;;;;;;12.30;11.10;;;6.60;99.90;;;;;;5074709;28;20462;-49
2022/11/17 09:06:20;;;;;;;13.47;11.23;;;6.70;99.90;;;;;;5074216;28;20439;-48
2022/11/17 09:08:47;;;;;;;15.43;12.07;;;6.10;99.90;;;;;;5073885;28;20435;-50
2022/11/17 09:11:15;;;;;;;15.80;12.07;;;7.30;99.90;;;;;;5074432;28;20468;-49
2022/11/17 09:13:42;;;;;;;15.37;12.20;;;6.80;99.90;;;;;;5074357;28;20459;-48
2022/11/17 09:16:11;;;;;;;17.07;13.20;;;6.70;99.90;;;;;;5074179;28;20449;-49
2022/11/17 09:18:39;;;;;;;16.27;13.03;;;6.90;99.90;;;;;;5056630;28;20455;-47
2022/11/17 09:21:09;;;;;;;16.03;12.60;;;6.80;99.90;;;;;;5074521;28;20428;-48
2022/11/17 09:23:36;;;;;;;19.70;13.37;;;6.80;99.90;;;;;;5074166;28;20442;-49
2022/11/17 09:26:05;;;;;;;14.97;13.43;;;6.20;99.90;;;;;;5074328;28;20792;-49
2022/11/17 09:28:32;;;;;;;14.80;11.90;;;6.90;99.90;;;;;;5074174;28;20486;-49
2022/11/17 09:30:59;;;;;;;15.43;13.77;;;6.90;99.90;;;;;;5074370;28;20512;-50
2022/11/17 09:33:26;;;;;;;14.07;12.10;;;6.80;99.90;;;;;;5073900;28;20468;-50
2022/11/17 09:35:56;;;;;;;15.93;14.23;;;6.80;99.90;;;;;;5074027;28;20442;-50
2022/11/17 09:38:23;;;;;;;17.90;12.90;;;6.60;99.90;;;;;;5055923;28;20521;-49
2022/11/17 09:40:51;;;;;;;15.77;12.30;;;6.80;99.90;;;;;;5073804;28;20436;-51
2022/11/17 09:43:25;;;;;;;15.07;13.20;;;6.70;99.90;;;;;;5073911;28;20810;-49
2022/11/17 09:45:54;;;;;;;15.07;12.57;;;6.80;99.90;;;;;;5073821;28;20439;-49
2022/11/17 09:48:32;;;;;;;14.63;12.10;;;6.80;99.90;;;;;;5074203;28;20447;-50
2022/11/17 09:51:03;;;;;;;15.93;12.17;;;7.00;99.90;;;;;;5073933;28;20427;-49
2022/11/17 09:53:40;;;;;;;14.77;12.60;;;7.30;99.90;;;;;;5073054;28;20992;-50
2022/11/17 09:56:10;;;;;;;14.33;12.13;;;6.80;99.90;;;;;;5073594;28;20419;-49
2022/11/17 09:58:42;;;;;;;15.27;12.70;;;6.90;99.90;;;;;;5073070;28;20829;-49
2022/11/17 10:01:12;;;;;;;16.93;12.87;;;6.80;99.90;;;;;;5073560;28;20435;-49
2022/11/17 10:03:41;;;;;;;16.80;13.33;;;6.80;99.90;;;;;;5073464;28;20444;-49
2022/11/17 10:06:14;;;;;;;18.50;13.20;;;7.00;99.90;;;;;;5073894;28;20447;-50
2022/11/17 10:08:46;;;;;;;15.53;12.80;;;7.40;99.90;;;;;;5073140;28;20439;-50
2022/11/17 10:11:32;;;;;;;14.77;13.10;;;7.00;99.90;;;;;;5073375;28;20403;-50
2022/11/17 10:14:03;;;;;;;16.47;12.67;;;6.90;99.90;;;;;;5073159;28;20571;-47
2022/11/17 10:16:30;;;;;;;14.30;12.60;;;6.70;99.90;;;;;;5073348;28;20432;-48
2022/11/17 10:18:57;;;;;;;14.93;13.30;;;7.00;99.90;;;;;;5072417;28;20945;-50
2022/11/17 10:21:29;;;;;;;18.27;13.10;;;6.70;99.90;;;;;;5073089;28;20436;-49
2022/11/17 10:23:58;;;;;;;14.27;12.73;;;6.80;99.90;;;;;;5073414;28;20636;-48
2022/11/17 10:26:25;;;;;;;15.13;13.53;;;6.90;99.90;;;;;;5073149;28;20943;-48
2022/11/17 10:29:06;;;;;;;16.90;13.70;;;6.70;99.90;;;;;;5072919;28;20455;-48
2022/11/17 10:31:41;;;;;;;16.53;12.50;;;7.20;99.90;;;;;;5073432;28;20929;-48
2022/11/17 10:34:09;;;;;;;15.70;13.13;;;6.90;99.90;;;;;;5072945;28;20461;-48
2022/11/17 10:36:45;;;;;;;16.03;12.17;;;6.40;99.90;;;;;;5055079;28;20963;-48
2022/11/17 10:39:33;;;;;;;15.87;11.77;;;7.00;99.90;;;;;;5072645;28;20432;-48
2022/11/17 10:42:11;;;;;;;15.77;12.40;;;6.90;99.90;;;;;;5055170;28;20519;-48
2022/11/17 10:44:43;;;;;;;22.50;13.30;;;6.90;99.90;;;;;;5073365;28;20423;-48
2022/11/17 10:47:26;;;;;;;17.50;12.67;;;7.00;99.90;;;;;;5072855;28;20432;-48
2022/11/17 10:50:12;;;;;;;17.47;13.00;;;7.00;99.90;;;;;;5072410;28;20779;-46
2022/11/17 10:52:40;;;;;;;16.47;12.23;;;7.30;99.90;;;;;;5072263;28;20994;-48
2022/11/17 10:55:34;;;;;;;17.07;13.40;;;7.20;99.90;;;;;;5072621;28;20437;-48
2022/11/17 10:58:05;;;;;;;18.50;11.90;;;6.80;99.90;;;;;;5072390;28;20432;-48
2022/11/17 11:00:34;;;;;;;13.63;11.80;;;7.10;99.90;;;;;;5072422;28;20406;-49
2022/11/17 11:03:07;;;;;;;16.10;12.10;;;7.10;99.90;;;;;;5071872;28;20435;-48
2022/11/17 11:05:33;;;;;;;19.73;11.63;;;7.10;99.90;;;;;;5072349;28;20924;-47
2022/11/17 11:08:21;;;;;;;15.33;11.20;;;6.70;99.90;;;;;;5072311;28;20456;-47
2022/11/17 11:10:52;;;;;;;15.77;12.33;;;7.10;99.90;;;;;;5054320;28;20479;-48
2022/11/17 11:13:28;;;;;;;15.13;11.70;;;6.90;99.90;;;;;;5071243;28;20855;-49
2022/11/17 11:15:54;;;;;;;16.70;11.53;;;7.00;99.90;;;;;;5072130;28;20414;-49
2022/11/17 11:18:21;;;;;;;12.70;10.93;;;7.00;99.90;;;;;;5072409;28;20439;-49
2022/11/17 11:20:58;;;;;;;17.08;13.20;;;7.20;99.90;;;;;;5071712;28;20458;-48
2022/11/17 11:23:39;;;;;;;12.93;11.57;;;7.00;99.90;;;;;;5072659;28;20233;-48
2022/11/17 11:26:18;;;;;;;15.47;11.87;;;7.10;99.90;;;;;;5072313;28;20452;-47
2022/11/17 11:28:59;;;;;;;14.13;10.30;;;7.00;99.90;;;;;;5073302;28;20534;-48
2022/11/17 11:31:34;;;;;;;15.10;11.30;;;6.70;99.90;;;;;;5073181;28;20425;-47
2022/11/17 11:34:09;;;;;;;15.30;12.32;;;7.30;99.90;;;;;;5072796;28;20446;-47
2022/11/17 11:36:42;;;;;;;12.67;11.23;;;7.10;99.90;;;;;;5073328;28;20209;-47
2022/11/17 11:39:21;;;;;;;15.27;11.67;;;7.10;99.90;;;;;;5072516;28;20414;-48
2022/11/17 11:42:08;;;;;;;13.77;11.40;;;7.10;99.90;;;;;;5071836;28;20432;-47
2022/11/17 11:45:04;;;;;;;12.30;11.00;;;6.90;99.90;;;;;;5052373;28;20424;-48
2022/11/17 11:47:51;;;;;;;14.50;11.20;;;7.20;99.90;;;;;;5052455;28;20453;-47
2022/11/17 11:50:22;;;;;;;13.10;10.73;;;7.20;99.90;;;;;;5051658;28;20444;-48
2022/11/17 11:52:54;;;;;;;12.83;10.47;;;7.10;99.90;;;;;;5052907;28;20460;-49
2022/11/17 11:55:27;;;;;;;12.20;10.63;;;6.80;99.90;;;;;;5069888;28;20414;-48
2022/11/17 11:58:03;;;;;;;16.27;12.77;;;7.10;99.90;;;;;;5071884;28;20415;-48
2022/11/17 12:00:31;;;;;;;12.70;11.03;;;6.90;99.90;;;;;;5071325;28;20446;-49
2022/11/17 12:03:05;;;;;;;12.70;11.00;;;6.90;99.90;;;;;;5071769;28;20467;-48
2022/11/17 12:05:39;;;;;;;12.00;10.37;;;7.10;99.90;;;;;;5071964;28;20426;-48
2022/11/17 12:08:11;;;;;;;10.93;9.13;;;7.00;99.90;;;;;;5072041;28;20522;-48
2022/11/17 12:10:48;;;;;;;11.07;10.00;;;7.10;99.90;;;;;;5071352;28;20489;-48
2022/11/17 12:13:18;;;;;;;13.47;11.30;;;7.30;99.90;;;;;;5071612;28;20459;-48
2022/11/17 12:15:44;;;;;;;12.40;10.70;;;7.50;99.90;;;;;;5070731;28;20413;-49
2022/11/17 12:18:14;;;;;;;13.00;10.90;;;7.30;99.90;;;;;;5069642;28;20443;-48
2022/11/17 12:20:58;;;;;;;15.53;11.10;;;6.60;99.90;;;;;;5070421;28;20836;-47
2022/11/17 12:23:41;;;;;;;13.80;11.53;;;6.80;99.90;;;;;;5070589;28;20548;-47
2022/11/17 12:26:22;;;;;;;12.60;10.83;;;7.00;99.90;;;;;;5074417;28;20427;-47
2022/11/17 12:28:48;;;;;;;15.93;11.47;;;6.90;99.90;;;;;;5074485;28;20428;-48
2022/11/17 12:31:42;;;;;;;12.50;11.20;;;7.20;99.90;;;;;;5075146;28;20490;-48
2022/11/17 12:34:18;;;;;;;17.87;10.90;;;7.30;99.90;;;;;;5075519;28;20998;-48
2022/11/17 12:37:28;;;;;;;13.13;10.97;;;7.30;99.90;;;;;;5075717;28;20438;-47
2022/11/17 12:40:00;;;;;;;13.90;11.40;;;7.10;99.90;;;;;;5076054;28;20451;-47
2022/11/17 12:42:30;;;;;;;12.17;10.80;;;7.20;99.90;;;;;;5076418;28;20476;-48
2022/11/17 12:45:02;;;;;;;15.00;11.60;;;7.10;99.90;;;;;;5076300;28;20446;-49
2022/11/17 12:47:30;;;;;;;12.00;10.80;;;7.10;99.90;;;;;;5076869;28;20406;-49
2022/11/17 12:50:25;;;;;;;12.30;10.90;;;7.30;99.90;;;;;;5074837;28;20436;-49
2022/11/17 12:53:12;;;;;;;13.83;11.67;;;7.10;99.90;;;;;;5064237;28;20547;-48
2022/11/17 12:55:54;;;;;;;19.97;12.60;;;7.10;99.90;;;;;;5075063;28;20475;-48
2022/11/17 12:58:30;;;;;;;14.20;12.80;;;7.60;99.90;;;;;;5074544;28;20433;-49
2022/11/17 13:01:08;;;;;;;12.53;11.20;;;7.60;99.90;;;;;;5075386;28;20793;-48
2022/11/17 13:03:42;;;;;;;12.17;10.87;;;7.40;99.90;;;;;;5074987;28;20972;-49
2022/11/17 13:06:11;;;;;;;12.37;10.77;;;7.50;99.90;;;;;;5082828;28;20405;-48
2022/11/17 13:08:38;;;;;;;12.90;11.70;;;7.50;99.90;;;;;;5095530;28;20447;-47
2022/11/17 13:11:10;;;;;;;13.63;11.30;;;7.30;99.90;;;;;;5095038;28;20515;-48
2022/11/17 13:13:38;;;;;;;14.90;12.70;;;7.10;99.90;;;;;;5093412;28;20533;-48
2022/11/17 13:16:05;;;;;;;12.23;10.80;;;7.40;99.90;;;;;;5094749;28;20277;-49
2022/11/17 13:18:36;;;;;;;12.47;10.87;;;7.20;99.90;;;;;;5094334;28;20450;-53
2022/11/17 13:21:03;;;;;;;12.43;11.00;;;7.20;99.90;;;;;;5094656;28;20407;-49
2022/11/17 13:23:31;;;;;;;11.67;10.50;;;7.30;99.90;;;;;;5094405;28;20456;-49
2022/11/17 13:26:18;;;;;;;15.03;11.13;;;7.10;99.90;;;;;;5094891;28;20428;-50